sensor_id;sensor_type;location;lat;lon;timestamp;temperature;humidity
610;DHT22;292;48.800;9.216;2024-02-23T00:02:22;9.50;67.70
610;DHT22;292;48.800;9.216;2024-02-23T00:04:52;9.50;67.70
610;DHT22;292;48.800;9.216;2024-02-23T00:07:19;9.40;67.90
610;DHT22;292;48.800;9.216;2024-02-23T00:10:01;9.40;68.00
610;DHT22;292;48.800;9.216;2024-02-23T00:12:46;9.40;68.20
610;DHT22;292;48.800;9.216;2024-02-23T00:15:25;9.40;68.20
610;DHT22;292;48.800;9.216;2024-02-23T00:28:56;9.30;68.70
610;DHT22;292;48.800;9.216;2024-02-23T00:31:43;9.30;68.60
610;DHT22;292;48.800;9.216;2024-02-23T00:34:24;9.30;68.60
610;DHT22;292;48.800;9.216;2024-02-23T00:40:22;9.30;68.90
610;DHT22;292;48.800;9.216;2024-02-23T00:42:52;9.30;68.90
610;DHT22;292;48.800;9.216;2024-02-23T00:45:19;9.30;68.90
610;DHT22;292;48.800;9.216;2024-02-23T00:47:52;9.30;69.00
610;DHT22;292;48.800;9.216;2024-02-23T00:50:19;9.30;69.00
610;DHT22;292;48.800;9.216;2024-02-23T00:52:46;9.30;69.00
610;DHT22;292;48.800;9.216;2024-02-23T00:55:13;9.30;68.90
610;DHT22;292;48.800;9.216;2024-02-23T00:57:40;9.30;69.00
610;DHT22;292;48.800;9.216;2024-02-23T01:00:08;9.30;69.00
610;DHT22;292;48.800;9.216;2024-02-23T01:02:37;9.40;69.00
610;DHT22;292;48.800;9.216;2024-02-23T01:05:08;9.40;69.20
610;DHT22;292;48.800;9.216;2024-02-23T01:07:43;9.40;69.20
610;DHT22;292;48.800;9.216;2024-02-23T01:10:12;9.40;69.20
610;DHT22;292;48.800;9.216;2024-02-23T01:13:05;9.40;68.90
610;DHT22;292;48.800;9.216;2024-02-23T01:15:33;9.40;68.90
610;DHT22;292;48.800;9.216;2024-02-23T01:18:02;9.40;68.90
610;DHT22;292;48.800;9.216;2024-02-23T01:20:32;9.40;68.90
610;DHT22;292;48.800;9.216;2024-02-23T01:32:49;9.30;68.60
610;DHT22;292;48.800;9.216;2024-02-23T01:35:20;9.30;68.60
610;DHT22;292;48.800;9.216;2024-02-23T01:59:02;9.30;68.90
610;DHT22;292;48.800;9.216;2024-02-23T02:01:30;9.90;66.40
610;DHT22;292;48.800;9.216;2024-02-23T02:03:59;9.80;66.40
610;DHT22;292;48.800;9.216;2024-02-23T02:06:26;9.80;66.60
610;DHT22;292;48.800;9.216;2024-02-23T02:08:53;9.70;66.40
610;DHT22;292;48.800;9.216;2024-02-23T02:11:21;9.60;66.70
610;DHT22;292;48.800;9.216;2024-02-23T02:14:28;9.60;67.00
610;DHT22;292;48.800;9.216;2024-02-23T02:17:11;9.50;67.20
610;DHT22;292;48.800;9.216;2024-02-23T02:20:12;9.50;67.30
610;DHT22;292;48.800;9.216;2024-02-23T02:22:39;9.40;67.60
610;DHT22;292;48.800;9.216;2024-02-23T02:25:13;9.40;67.70
610;DHT22;292;48.800;9.216;2024-02-23T02:27:42;9.40;67.90
610;DHT22;292;48.800;9.216;2024-02-23T02:43:30;9.30;68.20
610;DHT22;292;48.800;9.216;2024-02-23T02:52:50;9.30;68.30
610;DHT22;292;48.800;9.216;2024-02-23T02:55:18;9.30;68.50
610;DHT22;292;48.800;9.216;2024-02-23T02:57:45;9.30;68.30
610;DHT22;292;48.800;9.216;2024-02-23T03:00:14;9.40;68.30
610;DHT22;292;48.800;9.216;2024-02-23T03:06:20;9.40;67.90
610;DHT22;292;48.800;9.216;2024-02-23T03:09:01;9.40;67.90
610;DHT22;292;48.800;9.216;2024-02-23T03:11:28;9.40;67.90
610;DHT22;292;48.800;9.216;2024-02-23T03:14:11;9.40;67.60
610;DHT22;292;48.800;9.216;2024-02-23T03:16:51;9.40;67.00
610;DHT22;292;48.800;9.216;2024-02-23T03:19:33;9.40;67.00
610;DHT22;292;48.800;9.216;2024-02-23T03:22:02;9.40;66.90
610;DHT22;292;48.800;9.216;2024-02-23T03:24:29;9.40;67.20
610;DHT22;292;48.800;9.216;2024-02-23T03:26:57;9.30;67.60
610;DHT22;292;48.800;9.216;2024-02-23T03:29:57;9.20;68.00
610;DHT22;292;48.800;9.216;2024-02-23T03:32:40;9.20;68.00
610;DHT22;292;48.800;9.216;2024-02-23T03:35:08;9.20;67.60
610;DHT22;292;48.800;9.216;2024-02-23T03:37:37;9.20;67.60
610;DHT22;292;48.800;9.216;2024-02-23T03:40:05;9.20;67.20
610;DHT22;292;48.800;9.216;2024-02-23T03:42:32;9.20;67.20
610;DHT22;292;48.800;9.216;2024-02-23T03:44:59;9.20;66.90
610;DHT22;292;48.800;9.216;2024-02-23T03:47:26;9.20;66.40
610;DHT22;292;48.800;9.216;2024-02-23T03:49:54;9.20;66.20
610;DHT22;292;48.800;9.216;2024-02-23T03:52:29;9.20;65.90
610;DHT22;292;48.800;9.216;2024-02-23T03:54:57;9.20;65.30
610;DHT22;292;48.800;9.216;2024-02-23T03:57:33;9.20;64.70
610;DHT22;292;48.800;9.216;2024-02-23T04:00:00;9.20;64.10
610;DHT22;292;48.800;9.216;2024-02-23T04:05:46;9.20;63.10
610;DHT22;292;48.800;9.216;2024-02-23T04:08:13;9.10;62.70
610;DHT22;292;48.800;9.216;2024-02-23T04:10:41;9.10;62.50
610;DHT22;292;48.800;9.216;2024-02-23T04:19:56;9.10;62.40
610;DHT22;292;48.800;9.216;2024-02-23T04:22:23;9.10;62.10
610;DHT22;292;48.800;9.216;2024-02-23T04:24:57;9.10;62.00
610;DHT22;292;48.800;9.216;2024-02-23T04:27:25;9.10;62.00
610;DHT22;292;48.800;9.216;2024-02-23T04:29:52;9.10;61.50
610;DHT22;292;48.800;9.216;2024-02-23T04:32:23;9.10;61.50
610;DHT22;292;48.800;9.216;2024-02-23T04:34:55;9.10;61.50
610;DHT22;292;48.800;9.216;2024-02-23T04:37:22;9.10;61.40
610;DHT22;292;48.800;9.216;2024-02-23T04:39:49;9.20;61.20
610;DHT22;292;48.800;9.216;2024-02-23T04:42:16;9.10;61.00
610;DHT22;292;48.800;9.216;2024-02-23T04:44:44;9.10;61.10
610;DHT22;292;48.800;9.216;2024-02-23T04:47:12;9.20;61.00
610;DHT22;292;48.800;9.216;2024-02-23T04:49:39;9.10;60.50
610;DHT22;292;48.800;9.216;2024-02-23T04:52:07;9.10;60.50
610;DHT22;292;48.800;9.216;2024-02-23T04:54:35;9.10;60.40
610;DHT22;292;48.800;9.216;2024-02-23T04:57:02;9.10;60.40
610;DHT22;292;48.800;9.216;2024-02-23T04:59:29;9.10;60.10
610;DHT22;292;48.800;9.216;2024-02-23T05:01:59;9.00;60.00
610;DHT22;292;48.800;9.216;2024-02-23T05:04:26;9.00;60.00
610;DHT22;292;48.800;9.216;2024-02-23T05:06:54;9.00;60.10
610;DHT22;292;48.800;9.216;2024-02-23T05:09:21;9.00;60.20
610;DHT22;292;48.800;9.216;2024-02-23T05:11:48;9.00;60.10
610;DHT22;292;48.800;9.216;2024-02-23T05:14:27;9.00;60.10
610;DHT22;292;48.800;9.216;2024-02-23T05:17:10;9.00;60.00
610;DHT22;292;48.800;9.216;2024-02-23T05:19:37;9.00;59.80
610;DHT22;292;48.800;9.216;2024-02-23T05:22:04;9.00;59.80
610;DHT22;292;48.800;9.216;2024-02-23T05:24:31;9.00;59.80
610;DHT22;292;48.800;9.216;2024-02-23T05:27:03;9.00;59.80
610;DHT22;292;48.800;9.216;2024-02-23T05:29:33;9.00;59.80
610;DHT22;292;48.800;9.216;2024-02-23T05:32:05;9.00;59.70
610;DHT22;292;48.800;9.216;2024-02-23T05:34:32;9.00;59.60
610;DHT22;292;48.800;9.216;2024-02-23T05:37:03;9.00;59.40
610;DHT22;292;48.800;9.216;2024-02-23T05:39:30;8.90;59.20
610;DHT22;292;48.800;9.216;2024-02-23T05:41:57;8.90;59.30
610;DHT22;292;48.800;9.216;2024-02-23T05:44:25;8.80;59.60
610;DHT22;292;48.800;9.216;2024-02-23T05:46:54;8.90;59.70
610;DHT22;292;48.800;9.216;2024-02-23T05:49:24;8.80;59.60
610;DHT22;292;48.800;9.216;2024-02-23T05:52:01;8.80;60.00
610;DHT22;292;48.800;9.216;2024-02-23T05:54:29;8.80;60.00
610;DHT22;292;48.800;9.216;2024-02-23T05:56:56;8.70;60.10
610;DHT22;292;48.800;9.216;2024-02-23T05:59:32;8.70;60.10
610;DHT22;292;48.800;9.216;2024-02-23T06:02:07;8.70;60.10
610;DHT22;292;48.800;9.216;2024-02-23T06:04:55;8.70;60.20
610;DHT22;292;48.800;9.216;2024-02-23T06:07:41;8.60;60.40
610;DHT22;292;48.800;9.216;2024-02-23T06:10:09;8.60;60.70
610;DHT22;292;48.800;9.216;2024-02-23T06:12:37;8.60;60.80
610;DHT22;292;48.800;9.216;2024-02-23T06:15:06;8.60;61.10
610;DHT22;292;48.800;9.216;2024-02-23T06:17:49;8.50;61.10
610;DHT22;292;48.800;9.216;2024-02-23T06:20:27;8.50;61.20
610;DHT22;292;48.800;9.216;2024-02-23T06:22:58;8.50;61.20
610;DHT22;292;48.800;9.216;2024-02-23T06:25:41;8.40;61.40
610;DHT22;292;48.800;9.216;2024-02-23T06:28:10;8.40;61.70
610;DHT22;292;48.800;9.216;2024-02-23T06:30:47;8.30;62.40
610;DHT22;292;48.800;9.216;2024-02-23T06:33:15;8.30;62.70
610;DHT22;292;48.800;9.216;2024-02-23T06:35:45;8.30;63.00
610;DHT22;292;48.800;9.216;2024-02-23T06:39:03;8.20;63.40
610;DHT22;292;48.800;9.216;2024-02-23T06:54:45;8.10;66.20
610;DHT22;292;48.800;9.216;2024-02-23T06:57:12;8.10;66.30
610;DHT22;292;48.800;9.216;2024-02-23T06:59:42;8.10;66.60
610;DHT22;292;48.800;9.216;2024-02-23T07:02:16;8.10;66.70
610;DHT22;292;48.800;9.216;2024-02-23T07:04:43;8.10;67.00
610;DHT22;292;48.800;9.216;2024-02-23T07:07:11;8.10;67.20
610;DHT22;292;48.800;9.216;2024-02-23T07:09:38;8.10;67.50
610;DHT22;292;48.800;9.216;2024-02-23T07:12:07;8.10;67.60
610;DHT22;292;48.800;9.216;2024-02-23T07:14:46;8.10;67.70
610;DHT22;292;48.800;9.216;2024-02-23T07:17:47;8.10;67.70
610;DHT22;292;48.800;9.216;2024-02-23T07:20:38;8.10;67.90
610;DHT22;292;48.800;9.216;2024-02-23T07:23:05;8.10;68.00
610;DHT22;292;48.800;9.216;2024-02-23T07:25:32;8.10;68.30
610;DHT22;292;48.800;9.216;2024-02-23T07:28:02;8.20;68.50
610;DHT22;292;48.800;9.216;2024-02-23T07:30:29;8.20;68.50
610;DHT22;292;48.800;9.216;2024-02-23T07:32:56;8.20;68.50
610;DHT22;292;48.800;9.216;2024-02-23T07:35:25;8.20;68.30
610;DHT22;292;48.800;9.216;2024-02-23T07:40:43;8.20;68.30
610;DHT22;292;48.800;9.216;2024-02-23T07:41:38;8.20;68.30
610;DHT22;292;48.800;9.216;2024-02-23T07:44:12;8.20;68.30
610;DHT22;292;48.800;9.216;2024-02-23T07:46:39;8.20;68.30
610;DHT22;292;48.800;9.216;2024-02-23T07:59:17;8.30;67.90
610;DHT22;292;48.800;9.216;2024-02-23T08:01:46;8.30;67.70
610;DHT22;292;48.800;9.216;2024-02-23T08:04:15;8.30;67.50
610;DHT22;292;48.800;9.216;2024-02-23T08:06:42;8.40;67.30
610;DHT22;292;48.800;9.216;2024-02-23T08:09:09;8.40;67.00
610;DHT22;292;48.800;9.216;2024-02-23T08:11:36;8.40;67.00
610;DHT22;292;48.800;9.216;2024-02-23T08:14:09;8.40;67.00
610;DHT22;292;48.800;9.216;2024-02-23T08:16:40;8.40;67.20
610;DHT22;292;48.800;9.216;2024-02-23T08:19:29;8.40;67.20
610;DHT22;292;48.800;9.216;2024-02-23T08:21:57;8.40;67.00
610;DHT22;292;48.800;9.216;2024-02-23T08:24:38;8.40;67.00
610;DHT22;292;48.800;9.216;2024-02-23T08:27:09;8.40;66.90
610;DHT22;292;48.800;9.216;2024-02-23T08:29:39;8.40;66.40
610;DHT22;292;48.800;9.216;2024-02-23T08:32:24;8.40;66.40
610;DHT22;292;48.800;9.216;2024-02-23T08:34:53;8.40;66.60
610;DHT22;292;48.800;9.216;2024-02-23T08:37:26;8.40;66.60
610;DHT22;292;48.800;9.216;2024-02-23T08:39:55;8.40;66.70
610;DHT22;292;48.800;9.216;2024-02-23T08:42:24;8.40;66.70
610;DHT22;292;48.800;9.216;2024-02-23T08:44:54;8.40;66.70
610;DHT22;292;48.800;9.216;2024-02-23T08:47:22;8.40;66.60
610;DHT22;292;48.800;9.216;2024-02-23T08:49:50;8.40;66.20
610;DHT22;292;48.800;9.216;2024-02-23T08:52:17;8.40;66.00
610;DHT22;292;48.800;9.216;2024-02-23T08:54:47;8.40;66.00
610;DHT22;292;48.800;9.216;2024-02-23T08:57:16;8.40;65.70
610;DHT22;292;48.800;9.216;2024-02-23T08:59:45;8.40;65.90
610;DHT22;292;48.800;9.216;2024-02-23T09:02:14;8.40;66.00
610;DHT22;292;48.800;9.216;2024-02-23T09:04:42;8.40;66.00
610;DHT22;292;48.800;9.216;2024-02-23T09:07:11;8.40;66.00
610;DHT22;292;48.800;9.216;2024-02-23T09:09:39;8.40;65.90
610;DHT22;292;48.800;9.216;2024-02-23T09:12:10;8.40;66.00
610;DHT22;292;48.800;9.216;2024-02-23T09:14:43;8.40;65.90
610;DHT22;292;48.800;9.216;2024-02-23T09:17:10;8.40;65.40
610;DHT22;292;48.800;9.216;2024-02-23T09:19:38;8.40;65.30
610;DHT22;292;48.800;9.216;2024-02-23T09:22:10;8.40;64.70
610;DHT22;292;48.800;9.216;2024-02-23T09:24:44;8.40;64.40
610;DHT22;292;48.800;9.216;2024-02-23T09:27:16;8.40;63.60
610;DHT22;292;48.800;9.216;2024-02-23T09:29:45;8.40;63.00
610;DHT22;292;48.800;9.216;2024-02-23T09:32:12;8.40;62.80
610;DHT22;292;48.800;9.216;2024-02-23T09:34:39;8.50;62.80
610;DHT22;292;48.800;9.216;2024-02-23T09:37:09;8.50;62.80
610;DHT22;292;48.800;9.216;2024-02-23T09:39:37;8.50;62.40
610;DHT22;292;48.800;9.216;2024-02-23T09:42:13;8.50;62.00
610;DHT22;292;48.800;9.216;2024-02-23T09:44:46;8.60;61.70
610;DHT22;292;48.800;9.216;2024-02-23T09:47:16;8.60;61.50
610;DHT22;292;48.800;9.216;2024-02-23T09:49:49;8.60;61.40
610;DHT22;292;48.800;9.216;2024-02-23T09:55:45;8.70;61.20
610;DHT22;292;48.800;9.216;2024-02-23T09:58:14;8.80;61.20
610;DHT22;292;48.800;9.216;2024-02-23T10:00:42;8.90;61.10
610;DHT22;292;48.800;9.216;2024-02-23T10:03:11;9.00;60.50
610;DHT22;292;48.800;9.216;2024-02-23T10:05:38;9.10;60.20
610;DHT22;292;48.800;9.216;2024-02-23T10:08:05;9.20;60.20
610;DHT22;292;48.800;9.216;2024-02-23T10:10:37;9.20;60.00
610;DHT22;292;48.800;9.216;2024-02-23T10:13:07;9.20;59.60
610;DHT22;292;48.800;9.216;2024-02-23T10:15:34;9.30;59.30
610;DHT22;292;48.800;9.216;2024-02-23T10:18:01;9.30;59.00
610;DHT22;292;48.800;9.216;2024-02-23T10:20:29;9.30;58.80
610;DHT22;292;48.800;9.216;2024-02-23T10:23:05;9.30;58.60
610;DHT22;292;48.800;9.216;2024-02-23T10:25:36;9.30;58.90
610;DHT22;292;48.800;9.216;2024-02-23T10:28:04;9.30;58.80
610;DHT22;292;48.800;9.216;2024-02-23T10:30:37;9.30;58.60
610;DHT22;292;48.800;9.216;2024-02-23T10:33:05;9.30;57.80
610;DHT22;292;48.800;9.216;2024-02-23T10:35:36;9.20;57.70
610;DHT22;292;48.800;9.216;2024-02-23T10:38:10;9.20;57.70
610;DHT22;292;48.800;9.216;2024-02-23T10:40:39;9.20;58.00
610;DHT22;292;48.800;9.216;2024-02-23T10:43:19;9.20;58.10
610;DHT22;292;48.800;9.216;2024-02-23T10:45:49;9.20;57.80
610;DHT22;292;48.800;9.216;2024-02-23T10:48:23;9.20;57.70
610;DHT22;292;48.800;9.216;2024-02-23T10:50:51;9.20;57.60
610;DHT22;292;48.800;9.216;2024-02-23T10:53:27;9.30;57.40
610;DHT22;292;48.800;9.216;2024-02-23T10:56:02;9.30;57.30
610;DHT22;292;48.800;9.216;2024-02-23T11:05:01;9.40;57.00
610;DHT22;292;48.800;9.216;2024-02-23T11:07:40;9.40;56.90
610;DHT22;292;48.800;9.216;2024-02-23T11:10:07;9.50;57.00
610;DHT22;292;48.800;9.216;2024-02-23T11:12:49;9.50;57.00
610;DHT22;292;48.800;9.216;2024-02-23T11:15:29;9.50;56.50
610;DHT22;292;48.800;9.216;2024-02-23T11:18:02;9.60;56.60
610;DHT22;292;48.800;9.216;2024-02-23T11:20:35;9.60;56.80
610;DHT22;292;48.800;9.216;2024-02-23T11:23:12;9.70;56.90
610;DHT22;292;48.800;9.216;2024-02-23T11:26:04;9.70;56.60
610;DHT22;292;48.800;9.216;2024-02-23T11:28:41;9.70;56.40
610;DHT22;292;48.800;9.216;2024-02-23T11:37:22;9.80;56.40
610;DHT22;292;48.800;9.216;2024-02-23T11:38:24;9.90;55.70
610;DHT22;292;48.800;9.216;2024-02-23T11:41:16;9.90;55.30
610;DHT22;292;48.800;9.216;2024-02-23T11:44:38;9.90;55.00
610;DHT22;292;48.800;9.216;2024-02-23T11:46:50;9.90;54.80
610;DHT22;292;48.800;9.216;2024-02-23T11:49:17;9.90;54.60
610;DHT22;292;48.800;9.216;2024-02-23T11:51:44;9.90;54.60
610;DHT22;292;48.800;9.216;2024-02-23T11:54:15;9.90;54.80
610;DHT22;292;48.800;9.216;2024-02-23T11:56:42;9.90;54.50
610;DHT22;292;48.800;9.216;2024-02-23T11:59:21;9.90;54.50
610;DHT22;292;48.800;9.216;2024-02-23T12:01:52;9.90;54.60
610;DHT22;292;48.800;9.216;2024-02-23T12:04:53;9.90;54.60
610;DHT22;292;48.800;9.216;2024-02-23T12:07:36;10.00;54.60
610;DHT22;292;48.800;9.216;2024-02-23T12:10:40;10.00;54.50
610;DHT22;292;48.800;9.216;2024-02-23T12:13:09;10.00;54.50
610;DHT22;292;48.800;9.216;2024-02-23T12:15:39;10.00;54.40
610;DHT22;292;48.800;9.216;2024-02-23T12:18:18;10.10;54.20
610;DHT22;292;48.800;9.216;2024-02-23T12:20:59;10.10;54.20
610;DHT22;292;48.800;9.216;2024-02-23T12:23:41;10.10;54.20
610;DHT22;292;48.800;9.216;2024-02-23T12:26:08;10.10;54.10
610;DHT22;292;48.800;9.216;2024-02-23T12:28:36;10.10;54.00
610;DHT22;292;48.800;9.216;2024-02-23T12:31:05;10.10;54.10
610;DHT22;292;48.800;9.216;2024-02-23T12:33:36;10.20;54.20
610;DHT22;292;48.800;9.216;2024-02-23T12:36:17;10.30;54.20
610;DHT22;292;48.800;9.216;2024-02-23T12:38:57;10.30;53.70
610;DHT22;292;48.800;9.216;2024-02-23T12:41:26;10.30;53.30
610;DHT22;292;48.800;9.216;2024-02-23T12:43:53;10.30;53.20
610;DHT22;292;48.800;9.216;2024-02-23T12:46:24;10.30;52.60
610;DHT22;292;48.800;9.216;2024-02-23T12:48:57;10.30;52.80
610;DHT22;292;48.800;9.216;2024-02-23T12:51:45;10.30;52.90
610;DHT22;292;48.800;9.216;2024-02-23T12:54:12;10.40;53.20
610;DHT22;292;48.800;9.216;2024-02-23T12:56:41;10.40;53.00
610;DHT22;292;48.800;9.216;2024-02-23T12:59:22;10.40;53.00
610;DHT22;292;48.800;9.216;2024-02-23T13:01:51;10.50;52.90
610;DHT22;292;48.800;9.216;2024-02-23T13:04:18;10.40;52.80
610;DHT22;292;48.800;9.216;2024-02-23T13:06:45;10.50;52.80
610;DHT22;292;48.800;9.216;2024-02-23T13:09:26;10.40;52.90
610;DHT22;292;48.800;9.216;2024-02-23T13:11:56;10.40;53.20
610;DHT22;292;48.800;9.216;2024-02-23T13:14:25;10.40;53.20
610;DHT22;292;48.800;9.216;2024-02-23T13:16:53;10.40;53.20
610;DHT22;292;48.800;9.216;2024-02-23T13:22:58;10.40;53.70
610;DHT22;292;48.800;9.216;2024-02-23T13:25:25;10.40;53.60
610;DHT22;292;48.800;9.216;2024-02-23T13:27:52;10.40;53.40
610;DHT22;292;48.800;9.216;2024-02-23T13:30:19;10.40;53.40
610;DHT22;292;48.800;9.216;2024-02-23T13:32:48;10.40;53.60
610;DHT22;292;48.800;9.216;2024-02-23T13:35:16;10.50;53.80
610;DHT22;292;48.800;9.216;2024-02-23T13:37:51;10.50;53.60
610;DHT22;292;48.800;9.216;2024-02-23T13:40:20;10.50;53.30
610;DHT22;292;48.800;9.216;2024-02-23T13:42:55;10.50;53.20
610;DHT22;292;48.800;9.216;2024-02-23T13:45:54;10.50;53.20
610;DHT22;292;48.800;9.216;2024-02-23T13:48:26;10.50;53.20
610;DHT22;292;48.800;9.216;2024-02-23T13:50:53;10.50;53.40
610;DHT22;292;48.800;9.216;2024-02-23T13:53:22;10.50;53.30
610;DHT22;292;48.800;9.216;2024-02-23T13:56:12;10.50;53.40
610;DHT22;292;48.800;9.216;2024-02-23T13:58:43;10.50;53.40
610;DHT22;292;48.800;9.216;2024-02-23T14:01:44;10.50;53.60
610;DHT22;292;48.800;9.216;2024-02-23T14:04:33;10.60;53.70
610;DHT22;292;48.800;9.216;2024-02-23T14:07:01;10.50;53.60
610;DHT22;292;48.800;9.216;2024-02-23T14:09:29;10.50;53.70
610;DHT22;292;48.800;9.216;2024-02-23T14:12:01;10.50;54.00
610;DHT22;292;48.800;9.216;2024-02-23T14:14:28;10.50;54.10
610;DHT22;292;48.800;9.216;2024-02-23T14:16:55;10.50;54.10
610;DHT22;292;48.800;9.216;2024-02-23T14:19:25;10.60;54.10
610;DHT22;292;48.800;9.216;2024-02-23T14:21:53;10.60;54.10
610;DHT22;292;48.800;9.216;2024-02-23T14:24:26;10.60;54.10
610;DHT22;292;48.800;9.216;2024-02-23T14:26:55;10.70;54.00
610;DHT22;292;48.800;9.216;2024-02-23T14:29:45;10.70;53.70
610;DHT22;292;48.800;9.216;2024-02-23T14:36:11;10.70;53.80
610;DHT22;292;48.800;9.216;2024-02-23T14:46:12;10.80;54.00
610;DHT22;292;48.800;9.216;2024-02-23T14:48:39;10.80;53.80
610;DHT22;292;48.800;9.216;2024-02-23T14:51:08;10.80;53.80
610;DHT22;292;48.800;9.216;2024-02-23T14:53:38;10.90;53.80
610;DHT22;292;48.800;9.216;2024-02-23T14:56:07;10.90;53.70
610;DHT22;292;48.800;9.216;2024-02-23T14:58:35;11.00;53.30
610;DHT22;292;48.800;9.216;2024-02-23T15:01:02;11.00;53.40
610;DHT22;292;48.800;9.216;2024-02-23T15:03:29;11.00;53.20
610;DHT22;292;48.800;9.216;2024-02-23T15:05:58;11.00;53.30
610;DHT22;292;48.800;9.216;2024-02-23T15:08:26;11.10;53.00
610;DHT22;292;48.800;9.216;2024-02-23T15:10:57;11.10;52.90
610;DHT22;292;48.800;9.216;2024-02-23T15:13:25;11.10;52.90
610;DHT22;292;48.800;9.216;2024-02-23T15:15:53;11.10;52.80
610;DHT22;292;48.800;9.216;2024-02-23T15:18:29;11.00;52.80
610;DHT22;292;48.800;9.216;2024-02-23T15:20:58;11.00;52.50
610;DHT22;292;48.800;9.216;2024-02-23T15:23:34;11.00;52.60
610;DHT22;292;48.800;9.216;2024-02-23T15:26:05;10.90;52.50
610;DHT22;292;48.800;9.216;2024-02-23T15:28:34;10.90;52.40
610;DHT22;292;48.800;9.216;2024-02-23T15:31:24;10.90;52.60
610;DHT22;292;48.800;9.216;2024-02-23T15:34:10;10.90;52.60
610;DHT22;292;48.800;9.216;2024-02-23T15:36:46;10.90;52.60
610;DHT22;292;48.800;9.216;2024-02-23T15:39:17;10.90;52.60
610;DHT22;292;48.800;9.216;2024-02-23T15:41:47;10.90;52.80
610;DHT22;292;48.800;9.216;2024-02-23T15:47:51;10.90;52.80
610;DHT22;292;48.800;9.216;2024-02-23T15:50:40;10.80;52.80
610;DHT22;292;48.800;9.216;2024-02-23T15:53:23;10.80;52.80
610;DHT22;292;48.800;9.216;2024-02-23T15:56:03;10.80;52.90
610;DHT22;292;48.800;9.216;2024-02-23T15:58:34;10.80;52.90
610;DHT22;292;48.800;9.216;2024-02-23T16:01:01;10.80;53.00
610;DHT22;292;48.800;9.216;2024-02-23T16:03:28;10.80;53.30
610;DHT22;292;48.800;9.216;2024-02-23T16:05:57;10.80;53.60
610;DHT22;292;48.800;9.216;2024-02-23T16:08:41;10.80;53.60
610;DHT22;292;48.800;9.216;2024-02-23T16:11:09;10.80;53.60
610;DHT22;292;48.800;9.216;2024-02-23T16:13:51;10.90;53.60
610;DHT22;292;48.800;9.216;2024-02-23T16:16:28;10.90;53.40
610;DHT22;292;48.800;9.216;2024-02-23T16:18:58;10.90;53.40
610;DHT22;292;48.800;9.216;2024-02-23T16:21:40;10.90;53.40
610;DHT22;292;48.800;9.216;2024-02-23T16:24:08;10.90;53.40
610;DHT22;292;48.800;9.216;2024-02-23T16:26:35;10.90;53.30
610;DHT22;292;48.800;9.216;2024-02-23T16:29:14;10.90;53.30
610;DHT22;292;48.800;9.216;2024-02-23T16:35:32;10.90;53.60
610;DHT22;292;48.800;9.216;2024-02-23T16:38:03;10.90;53.70
610;DHT22;292;48.800;9.216;2024-02-23T16:40:30;10.80;53.70
610;DHT22;292;48.800;9.216;2024-02-23T16:46:24;10.80;54.00
610;DHT22;292;48.800;9.216;2024-02-23T16:48:51;10.90;54.00
610;DHT22;292;48.800;9.216;2024-02-23T16:51:23;10.90;54.00
610;DHT22;292;48.800;9.216;2024-02-23T16:53:57;10.80;54.00
610;DHT22;292;48.800;9.216;2024-02-23T16:56:28;10.90;54.10
610;DHT22;292;48.800;9.216;2024-02-23T16:58:55;10.90;54.20
610;DHT22;292;48.800;9.216;2024-02-23T17:01:25;10.90;54.40
610;DHT22;292;48.800;9.216;2024-02-23T17:04:17;10.90;54.50
610;DHT22;292;48.800;9.216;2024-02-23T17:06:53;10.80;54.60
610;DHT22;292;48.800;9.216;2024-02-23T17:09:23;10.80;54.90
610;DHT22;292;48.800;9.216;2024-02-23T17:11:52;10.80;55.00
610;DHT22;292;48.800;9.216;2024-02-23T17:14:26;10.80;55.00
610;DHT22;292;48.800;9.216;2024-02-23T17:24:34;10.70;55.20
610;DHT22;292;48.800;9.216;2024-02-23T17:27:08;10.70;55.30
610;DHT22;292;48.800;9.216;2024-02-23T17:31:43;10.70;55.40
610;DHT22;292;48.800;9.216;2024-02-23T17:33:58;10.70;55.60
610;DHT22;292;48.800;9.216;2024-02-23T17:36:51;10.60;55.70
610;DHT22;292;48.800;9.216;2024-02-23T17:39:20;10.60;56.00
610;DHT22;292;48.800;9.216;2024-02-23T17:41:55;10.60;56.10
610;DHT22;292;48.800;9.216;2024-02-23T17:44:24;10.50;56.20
610;DHT22;292;48.800;9.216;2024-02-23T17:46:53;10.60;56.10
610;DHT22;292;48.800;9.216;2024-02-23T17:49:39;10.50;56.40
610;DHT22;292;48.800;9.216;2024-02-23T17:52:08;10.50;56.40
610;DHT22;292;48.800;9.216;2024-02-23T17:54:39;10.50;56.40
610;DHT22;292;48.800;9.216;2024-02-23T17:57:16;10.40;56.50
610;DHT22;292;48.800;9.216;2024-02-23T17:59:44;10.40;56.40
610;DHT22;292;48.800;9.216;2024-02-23T18:02:19;10.30;56.50
610;DHT22;292;48.800;9.216;2024-02-23T18:04:48;10.30;56.60
610;DHT22;292;48.800;9.216;2024-02-23T18:07:18;10.30;56.80
610;DHT22;292;48.800;9.216;2024-02-23T18:09:47;10.30;56.90
610;DHT22;292;48.800;9.216;2024-02-23T18:12:18;10.30;56.90
610;DHT22;292;48.800;9.216;2024-02-23T18:15:05;10.30;56.90
610;DHT22;292;48.800;9.216;2024-02-23T18:17:35;10.20;56.80
610;DHT22;292;48.800;9.216;2024-02-23T18:20:22;10.20;56.50
610;DHT22;292;48.800;9.216;2024-02-23T18:22:56;10.20;56.20
610;DHT22;292;48.800;9.216;2024-02-23T18:25:23;10.20;56.10
610;DHT22;292;48.800;9.216;2024-02-23T18:28:12;10.10;56.20
610;DHT22;292;48.800;9.216;2024-02-23T18:30:41;10.10;56.40
610;DHT22;292;48.800;9.216;2024-02-23T18:34:14;10.10;56.40
610;DHT22;292;48.800;9.216;2024-02-23T18:36:33;10.10;56.20
610;DHT22;292;48.800;9.216;2024-02-23T18:39:01;10.00;56.10
610;DHT22;292;48.800;9.216;2024-02-23T18:41:35;10.00;56.10
610;DHT22;292;48.800;9.216;2024-02-23T18:54:32;9.80;56.00
610;DHT22;292;48.800;9.216;2024-02-23T18:57:03;9.70;56.00
610;DHT22;292;48.800;9.216;2024-02-23T18:59:31;9.70;56.00
610;DHT22;292;48.800;9.216;2024-02-23T19:01:59;9.70;56.00
610;DHT22;292;48.800;9.216;2024-02-23T19:04:28;9.70;56.00
610;DHT22;292;48.800;9.216;2024-02-23T19:06:56;9.70;56.00
610;DHT22;292;48.800;9.216;2024-02-23T19:09:22;9.70;56.00
610;DHT22;292;48.800;9.216;2024-02-23T19:12:13;9.60;56.10
610;DHT22;292;48.800;9.216;2024-02-23T19:14:48;9.60;56.10
610;DHT22;292;48.800;9.216;2024-02-23T19:21:49;9.50;56.00
610;DHT22;292;48.800;9.216;2024-02-23T19:24:30;9.50;56.00
610;DHT22;292;48.800;9.216;2024-02-23T19:43:51;9.40;56.20
610;DHT22;292;48.800;9.216;2024-02-23T19:46:18;9.40;56.50
610;DHT22;292;48.800;9.216;2024-02-23T19:48:51;9.40;56.50
610;DHT22;292;48.800;9.216;2024-02-23T19:51:19;9.40;56.60
610;DHT22;292;48.800;9.216;2024-02-23T19:53:54;9.50;56.80
610;DHT22;292;48.800;9.216;2024-02-23T19:56:25;9.50;56.80
610;DHT22;292;48.800;9.216;2024-02-23T19:59:00;9.50;56.80
610;DHT22;292;48.800;9.216;2024-02-23T20:01:29;9.50;56.90
610;DHT22;292;48.800;9.216;2024-02-23T20:03:58;9.50;56.90
610;DHT22;292;48.800;9.216;2024-02-23T20:06:25;9.50;56.90
610;DHT22;292;48.800;9.216;2024-02-23T20:08:56;9.40;57.00
610;DHT22;292;48.800;9.216;2024-02-23T20:11:34;9.40;57.20
610;DHT22;292;48.800;9.216;2024-02-23T20:14:22;9.40;57.20
610;DHT22;292;48.800;9.216;2024-02-23T20:16:51;9.40;57.20
610;DHT22;292;48.800;9.216;2024-02-23T20:19:18;9.40;57.20
610;DHT22;292;48.800;9.216;2024-02-23T20:21:52;9.40;57.30
610;DHT22;292;48.800;9.216;2024-02-23T20:24:27;9.30;57.30
610;DHT22;292;48.800;9.216;2024-02-23T20:26:54;9.30;57.30
610;DHT22;292;48.800;9.216;2024-02-23T20:29:44;9.30;57.40